sensor_id;sensor_type;location;lat;lon;timestamp;P1;durP1;ratioP1;P2;durP2;ratioP2
5819;SDS011;2936;47.348;9.640;2024-01-16T00:01:21;7.15;;;5.43;;
5819;SDS011;2936;47.348;9.640;2024-01-16T00:03:49;7.00;;;5.70;;
5819;SDS011;2936;47.348;9.640;2024-01-16T00:06:16;8.43;;;5.78;;
5819;SDS011;2936;47.348;9.640;2024-01-16T00:08:44;7.28;;;4.75;;
5819;SDS011;2936;47.348;9.640;2024-01-16T00:11:11;5.53;;;5.00;;
5819;SDS011;2936;47.348;9.640;2024-01-16T00:13:39;6.90;;;5.45;;
5819;SDS011;2936;47.348;9.640;2024-01-16T00:16:09;6.40;;;5.80;;
5819;SDS011;2936;47.348;9.640;2024-01-16T00:18:36;8.38;;;5.47;;
5819;SDS011;2936;47.348;9.640;2024-01-16T00:21:08;8.23;;;4.97;;
5819;SDS011;2936;47.348;9.640;2024-01-16T00:23:35;8.25;;;6.18;;
5819;SDS011;2936;47.348;9.640;2024-01-16T00:26:03;8.15;;;5.47;;
5819;SDS011;2936;47.348;9.640;2024-01-16T00:28:31;5.78;;;5.10;;
5819;SDS011;2936;47.348;9.640;2024-01-16T00:30:59;6.10;;;5.50;;
5819;SDS011;2936;47.348;9.640;2024-01-16T00:33:29;7.65;;;5.55;;
5819;SDS011;2936;47.348;9.640;2024-01-16T00:35:56;9.88;;;5.88;;
5819;SDS011;2936;47.348;9.640;2024-01-16T00:38:24;23.85;;;7.07;;
5819;SDS011;2936;47.348;9.640;2024-01-16T00:40:52;6.95;;;6.13;;
5819;SDS011;2936;47.348;9.640;2024-01-16T00:43:19;5.85;;;5.25;;
5819;SDS011;2936;47.348;9.640;2024-01-16T00:45:47;6.47;;;5.10;;
5819;SDS011;2936;47.348;9.640;2024-01-16T00:48:14;6.45;;;4.95;;
5819;SDS011;2936;47.348;9.640;2024-01-16T00:50:45;8.63;;;5.43;;
5819;SDS011;2936;47.348;9.640;2024-01-16T00:53:15;5.88;;;5.13;;
5819;SDS011;2936;47.348;9.640;2024-01-16T00:55:43;4.68;;;4.28;;
5819;SDS011;2936;47.348;9.640;2024-01-16T00:58:10;6.05;;;5.25;;
5819;SDS011;2936;47.348;9.640;2024-01-16T01:00:38;6.22;;;5.68;;
5819;SDS011;2936;47.348;9.640;2024-01-16T01:03:06;6.82;;;5.47;;
5819;SDS011;2936;47.348;9.640;2024-01-16T01:05:33;10.95;;;6.18;;
5819;SDS011;2936;47.348;9.640;2024-01-16T01:08:03;8.88;;;5.75;;
5819;SDS011;2936;47.348;9.640;2024-01-16T01:10:31;11.73;;;6.85;;
5819;SDS011;2936;47.348;9.640;2024-01-16T01:12:58;12.82;;;6.45;;
5819;SDS011;2936;47.348;9.640;2024-01-16T01:15:26;10.25;;;5.90;;
5819;SDS011;2936;47.348;9.640;2024-01-16T01:17:53;7.50;;;6.20;;
5819;SDS011;2936;47.348;9.640;2024-01-16T01:20:21;6.32;;;5.32;;
5819;SDS011;2936;47.348;9.640;2024-01-16T01:22:48;6.15;;;5.47;;
5819;SDS011;2936;47.348;9.640;2024-01-16T01:25:18;7.25;;;5.70;;
5819;SDS011;2936;47.348;9.640;2024-01-16T01:27:47;6.47;;;5.40;;
5819;SDS011;2936;47.348;9.640;2024-01-16T01:30:14;9.32;;;5.03;;
5819;SDS011;2936;47.348;9.640;2024-01-16T01:32:41;9.38;;;5.72;;
5819;SDS011;2936;47.348;9.640;2024-01-16T01:35:09;7.35;;;4.78;;
5819;SDS011;2936;47.348;9.640;2024-01-16T01:37:37;6.28;;;5.18;;
5819;SDS011;2936;47.348;9.640;2024-01-16T01:40:05;5.35;;;4.88;;
5819;SDS011;2936;47.348;9.640;2024-01-16T01:42:35;6.72;;;4.60;;
5819;SDS011;2936;47.348;9.640;2024-01-16T01:45:03;13.93;;;5.40;;
5819;SDS011;2936;47.348;9.640;2024-01-16T01:47:31;12.98;;;6.30;;
5819;SDS011;2936;47.348;9.640;2024-01-16T01:49:58;10.32;;;5.80;;
5819;SDS011;2936;47.348;9.640;2024-01-16T01:52:26;8.18;;;5.65;;
5819;SDS011;2936;47.348;9.640;2024-01-16T01:54:53;6.97;;;5.43;;
5819;SDS011;2936;47.348;9.640;2024-01-16T01:57:21;10.93;;;6.72;;
5819;SDS011;2936;47.348;9.640;2024-01-16T01:59:51;11.02;;;6.32;;
5819;SDS011;2936;47.348;9.640;2024-01-16T02:02:18;11.10;;;5.93;;
5819;SDS011;2936;47.348;9.640;2024-01-16T02:04:46;12.35;;;5.85;;
5819;SDS011;2936;47.348;9.640;2024-01-16T02:07:14;9.07;;;6.03;;
5819;SDS011;2936;47.348;9.640;2024-01-16T02:09:41;6.35;;;5.72;;
5819;SDS011;2936;47.348;9.640;2024-01-16T02:12:09;5.88;;;5.03;;
5819;SDS011;2936;47.348;9.640;2024-01-16T02:14:37;11.10;;;6.32;;
5819;SDS011;2936;47.348;9.640;2024-01-16T02:17:06;7.20;;;5.97;;
5819;SDS011;2936;47.348;9.640;2024-01-16T02:19:34;8.55;;;6.53;;
5819;SDS011;2936;47.348;9.640;2024-01-16T02:22:03;5.50;;;5.10;;
5819;SDS011;2936;47.348;9.640;2024-01-16T02:24:33;7.18;;;5.78;;
5819;SDS011;2936;47.348;9.640;2024-01-16T02:27:01;5.70;;;5.20;;
5819;SDS011;2936;47.348;9.640;2024-01-16T02:29:29;7.97;;;5.55;;
5819;SDS011;2936;47.348;9.640;2024-01-16T02:31:57;6.65;;;5.05;;
5819;SDS011;2936;47.348;9.640;2024-01-16T02:34:24;9.27;;;5.63;;
5819;SDS011;2936;47.348;9.640;2024-01-16T02:36:52;5.93;;;5.35;;
5819;SDS011;2936;47.348;9.640;2024-01-16T02:39:20;7.43;;;5.15;;
5819;SDS011;2936;47.348;9.640;2024-01-16T02:41:49;7.45;;;5.85;;
5819;SDS011;2936;47.348;9.640;2024-01-16T02:44:17;8.07;;;6.20;;
5819;SDS011;2936;47.348;9.640;2024-01-16T02:46:44;6.90;;;4.90;;
5819;SDS011;2936;47.348;9.640;2024-01-16T02:49:12;7.15;;;5.50;;
5819;SDS011;2936;47.348;9.640;2024-01-16T02:51:40;6.43;;;5.80;;
5819;SDS011;2936;47.348;9.640;2024-01-16T02:54:09;9.90;;;5.65;;
5819;SDS011;2936;47.348;9.640;2024-01-16T02:56:37;5.10;;;4.60;;
5819;SDS011;2936;47.348;9.640;2024-01-16T02:59:07;11.15;;;5.90;;
5819;SDS011;2936;47.348;9.640;2024-01-16T03:01:34;5.82;;;5.25;;
5819;SDS011;2936;47.348;9.640;2024-01-16T03:04:02;8.07;;;6.28;;
5819;SDS011;2936;47.348;9.640;2024-01-16T03:06:30;10.43;;;6.32;;
5819;SDS011;2936;47.348;9.640;2024-01-16T03:08:58;5.57;;;5.15;;
5819;SDS011;2936;47.348;9.640;2024-01-16T03:11:26;5.55;;;5.10;;
5819;SDS011;2936;47.348;9.640;2024-01-16T03:13:54;5.70;;;5.18;;
5819;SDS011;2936;47.348;9.640;2024-01-16T03:16:24;8.40;;;5.72;;
5819;SDS011;2936;47.348;9.640;2024-01-16T03:18:52;7.00;;;5.35;;
5819;SDS011;2936;47.348;9.640;2024-01-16T03:21:19;10.05;;;5.22;;
5819;SDS011;2936;47.348;9.640;2024-01-16T03:23:46;6.95;;;5.70;;
5819;SDS011;2936;47.348;9.640;2024-01-16T03:26:14;8.40;;;6.10;;
5819;SDS011;2936;47.348;9.640;2024-01-16T03:28:42;6.60;;;5.47;;
5819;SDS011;2936;47.348;9.640;2024-01-16T03:31:11;8.85;;;6.70;;
5819;SDS011;2936;47.348;9.640;2024-01-16T03:33:41;7.38;;;5.10;;
5819;SDS011;2936;47.348;9.640;2024-01-16T03:36:08;8.32;;;6.20;;
5819;SDS011;2936;47.348;9.640;2024-01-16T03:38:37;9.38;;;5.53;;
5819;SDS011;2936;47.348;9.640;2024-01-16T03:41:05;10.85;;;6.72;;
5819;SDS011;2936;47.348;9.640;2024-01-16T03:43:33;21.83;;;5.82;;
5819;SDS011;2936;47.348;9.640;2024-01-16T03:46:00;21.00;;;6.60;;
5819;SDS011;2936;47.348;9.640;2024-01-16T03:48:28;9.68;;;6.20;;
5819;SDS011;2936;47.348;9.640;2024-01-16T03:50:57;18.35;;;7.07;;
5819;SDS011;2936;47.348;9.640;2024-01-16T03:53:25;8.32;;;5.55;;
5819;SDS011;2936;47.348;9.640;2024-01-16T03:55:53;15.52;;;6.22;;
5819;SDS011;2936;47.348;9.640;2024-01-16T03:58:20;9.68;;;5.68;;
5819;SDS011;2936;47.348;9.640;2024-01-16T04:00:48;9.85;;;5.53;;
5819;SDS011;2936;47.348;9.640;2024-01-16T04:03:16;7.13;;;6.43;;
5819;SDS011;2936;47.348;9.640;2024-01-16T04:05:43;11.48;;;6.93;;
5819;SDS011;2936;47.348;9.640;2024-01-16T04:08:13;10.75;;;6.95;;
5819;SDS011;2936;47.348;9.640;2024-01-16T04:10:41;14.30;;;7.35;;
5819;SDS011;2936;47.348;9.640;2024-01-16T04:13:08;9.43;;;6.30;;
5819;SDS011;2936;47.348;9.640;2024-01-16T04:15:37;9.68;;;6.93;;
5819;SDS011;2936;47.348;9.640;2024-01-16T04:18:05;13.13;;;7.10;;
5819;SDS011;2936;47.348;9.640;2024-01-16T04:20:34;9.45;;;6.50;;
5819;SDS011;2936;47.348;9.640;2024-01-16T04:23:02;12.52;;;7.78;;
5819;SDS011;2936;47.348;9.640;2024-01-16T04:25:31;7.45;;;6.68;;
5819;SDS011;2936;47.348;9.640;2024-01-16T04:27:59;10.40;;;7.35;;
5819;SDS011;2936;47.348;9.640;2024-01-16T04:30:26;12.63;;;6.47;;
5819;SDS011;2936;47.348;9.640;2024-01-16T04:32:54;9.57;;;7.05;;
5819;SDS011;2936;47.348;9.640;2024-01-16T04:35:21;13.07;;;7.53;;
5819;SDS011;2936;47.348;9.640;2024-01-16T04:37:49;8.75;;;6.40;;
5819;SDS011;2936;47.348;9.640;2024-01-16T04:40:17;7.88;;;7.00;;
5819;SDS011;2936;47.348;9.640;2024-01-16T04:42:46;7.78;;;6.28;;
5819;SDS011;2936;47.348;9.640;2024-01-16T04:45:14;9.45;;;7.18;;
5819;SDS011;2936;47.348;9.640;2024-01-16T04:47:42;12.43;;;7.57;;
5819;SDS011;2936;47.348;9.640;2024-01-16T04:50:09;10.95;;;6.97;;
5819;SDS011;2936;47.348;9.640;2024-01-16T04:52:37;7.00;;;6.22;;
5819;SDS011;2936;47.348;9.640;2024-01-16T04:55:05;6.70;;;5.97;;
5819;SDS011;2936;47.348;9.640;2024-01-16T04:57:33;13.05;;;7.05;;
5819;SDS011;2936;47.348;9.640;2024-01-16T05:00:03;10.90;;;7.13;;
5819;SDS011;2936;47.348;9.640;2024-01-16T05:02:32;10.20;;;7.15;;
5819;SDS011;2936;47.348;9.640;2024-01-16T05:05:00;8.73;;;6.50;;
5819;SDS011;2936;47.348;9.640;2024-01-16T05:07:28;12.85;;;7.05;;
5819;SDS011;2936;47.348;9.640;2024-01-16T05:09:56;7.90;;;6.53;;
5819;SDS011;2936;47.348;9.640;2024-01-16T05:12:24;8.15;;;6.60;;
5819;SDS011;2936;47.348;9.640;2024-01-16T05:14:52;10.48;;;6.85;;
5819;SDS011;2936;47.348;9.640;2024-01-16T05:17:21;16.08;;;7.03;;
5819;SDS011;2936;47.348;9.640;2024-01-16T05:19:48;7.05;;;6.32;;
5819;SDS011;2936;47.348;9.640;2024-01-16T05:22:16;7.35;;;6.60;;
5819;SDS011;2936;47.348;9.640;2024-01-16T05:24:44;13.32;;;7.97;;
5819;SDS011;2936;47.348;9.640;2024-01-16T05:27:12;15.70;;;8.27;;
5819;SDS011;2936;47.348;9.640;2024-01-16T05:29:41;19.38;;;7.90;;
5819;SDS011;2936;47.348;9.640;2024-01-16T05:32:09;7.30;;;6.00;;
5819;SDS011;2936;47.348;9.640;2024-01-16T05:34:38;10.95;;;7.47;;
5819;SDS011;2936;47.348;9.640;2024-01-16T05:37:06;13.20;;;6.95;;
5819;SDS011;2936;47.348;9.640;2024-01-16T05:39:33;9.68;;;6.57;;
5819;SDS011;2936;47.348;9.640;2024-01-16T05:42:02;12.50;;;6.80;;
5819;SDS011;2936;47.348;9.640;2024-01-16T05:44:30;12.80;;;7.78;;
5819;SDS011;2936;47.348;9.640;2024-01-16T05:46:57;11.48;;;7.30;;
5819;SDS011;2936;47.348;9.640;2024-01-16T05:49:25;12.02;;;8.07;;
5819;SDS011;2936;47.348;9.640;2024-01-16T05:51:54;12.73;;;7.63;;
5819;SDS011;2936;47.348;9.640;2024-01-16T05:54:22;13.63;;;8.25;;
5819;SDS011;2936;47.348;9.640;2024-01-16T05:56:49;8.40;;;7.57;;
5819;SDS011;2936;47.348;9.640;2024-01-16T05:59:17;8.80;;;6.65;;
5819;SDS011;2936;47.348;9.640;2024-01-16T06:01:44;8.85;;;7.95;;
5819;SDS011;2936;47.348;9.640;2024-01-16T06:04:12;14.15;;;8.80;;
5819;SDS011;2936;47.348;9.640;2024-01-16T06:06:40;14.18;;;7.95;;
5819;SDS011;2936;47.348;9.640;2024-01-16T06:09:11;21.55;;;8.70;;
5819;SDS011;2936;47.348;9.640;2024-01-16T06:11:40;14.40;;;8.70;;
5819;SDS011;2936;47.348;9.640;2024-01-16T06:14:07;9.13;;;7.32;;
5819;SDS011;2936;47.348;9.640;2024-01-16T06:16:37;16.70;;;8.82;;
5819;SDS011;2936;47.348;9.640;2024-01-16T06:19:04;16.70;;;8.57;;
5819;SDS011;2936;47.348;9.640;2024-01-16T06:21:33;17.50;;;7.80;;
5819;SDS011;2936;47.348;9.640;2024-01-16T06:24:01;12.27;;;8.73;;
5819;SDS011;2936;47.348;9.640;2024-01-16T06:26:30;12.00;;;8.25;;
5819;SDS011;2936;47.348;9.640;2024-01-16T06:28:58;10.18;;;8.13;;
5819;SDS011;2936;47.348;9.640;2024-01-16T06:31:25;21.02;;;8.32;;
5819;SDS011;2936;47.348;9.640;2024-01-16T06:33:53;13.93;;;7.82;;
5819;SDS011;2936;47.348;9.640;2024-01-16T06:36:21;9.35;;;7.60;;
5819;SDS011;2936;47.348;9.640;2024-01-16T06:38:49;11.05;;;7.97;;
5819;SDS011;2936;47.348;9.640;2024-01-16T06:41:16;14.10;;;8.10;;
5819;SDS011;2936;47.348;9.640;2024-01-16T06:43:46;12.93;;;8.52;;
5819;SDS011;2936;47.348;9.640;2024-01-16T06:46:13;12.75;;;8.40;;
5819;SDS011;2936;47.348;9.640;2024-01-16T06:48:43;10.20;;;7.72;;
5819;SDS011;2936;47.348;9.640;2024-01-16T06:51:15;19.50;;;7.82;;
5819;SDS011;2936;47.348;9.640;2024-01-16T06:53:43;12.93;;;7.57;;
5819;SDS011;2936;47.348;9.640;2024-01-16T06:56:11;13.88;;;8.48;;
5819;SDS011;2936;47.348;9.640;2024-01-16T06:58:38;9.15;;;6.80;;
5819;SDS011;2936;47.348;9.640;2024-01-16T07:01:08;12.18;;;8.95;;
5819;SDS011;2936;47.348;9.640;2024-01-16T07:03:36;14.05;;;8.85;;
5819;SDS011;2936;47.348;9.640;2024-01-16T07:06:05;15.02;;;9.43;;
5819;SDS011;2936;47.348;9.640;2024-01-16T07:08:33;13.55;;;8.63;;
5819;SDS011;2936;47.348;9.640;2024-01-16T07:11:01;9.65;;;7.57;;
5819;SDS011;2936;47.348;9.640;2024-01-16T07:13:36;12.30;;;8.50;;
5819;SDS011;2936;47.348;9.640;2024-01-16T07:16:03;8.82;;;7.93;;
5819;SDS011;2936;47.348;9.640;2024-01-16T07:18:32;11.05;;;8.60;;
5819;SDS011;2936;47.348;9.640;2024-01-16T07:21:00;11.85;;;7.22;;
5819;SDS011;2936;47.348;9.640;2024-01-16T07:23:28;10.80;;;7.07;;
5819;SDS011;2936;47.348;9.640;2024-01-16T07:25:55;14.55;;;8.52;;
5819;SDS011;2936;47.348;9.640;2024-01-16T07:28:23;12.52;;;7.38;;
5819;SDS011;2936;47.348;9.640;2024-01-16T07:30:52;11.82;;;7.78;;
5819;SDS011;2936;47.348;9.640;2024-01-16T07:33:19;8.27;;;7.18;;
5819;SDS011;2936;47.348;9.640;2024-01-16T07:35:48;10.95;;;7.53;;
5819;SDS011;2936;47.348;9.640;2024-01-16T07:38:19;9.80;;;6.80;;
5819;SDS011;2936;47.348;9.640;2024-01-16T07:40:46;8.05;;;6.20;;
5819;SDS011;2936;47.348;9.640;2024-01-16T07:43:14;7.65;;;6.85;;
5819;SDS011;2936;47.348;9.640;2024-01-16T07:45:43;21.75;;;7.43;;
5819;SDS011;2936;47.348;9.640;2024-01-16T07:48:10;9.70;;;7.30;;
5819;SDS011;2936;47.348;9.640;2024-01-16T07:50:38;12.90;;;7.35;;
5819;SDS011;2936;47.348;9.640;2024-01-16T07:53:08;9.98;;;7.05;;
5819;SDS011;2936;47.348;9.640;2024-01-16T07:55:35;10.30;;;7.45;;
5819;SDS011;2936;47.348;9.640;2024-01-16T07:58:03;10.32;;;6.45;;
5819;SDS011;2936;47.348;9.640;2024-01-16T08:00:32;10.55;;;7.60;;
5819;SDS011;2936;47.348;9.640;2024-01-16T08:03:00;15.77;;;7.35;;
5819;SDS011;2936;47.348;9.640;2024-01-16T08:05:28;15.65;;;6.68;;
5819;SDS011;2936;47.348;9.640;2024-01-16T08:07:56;11.65;;;8.48;;
5819;SDS011;2936;47.348;9.640;2024-01-16T08:10:25;14.05;;;8.00;;
5819;SDS011;2936;47.348;9.640;2024-01-16T08:12:53;10.73;;;7.38;;
5819;SDS011;2936;47.348;9.640;2024-01-16T08:15:23;11.32;;;7.93;;
5819;SDS011;2936;47.348;9.640;2024-01-16T08:17:52;17.08;;;8.25;;
5819;SDS011;2936;47.348;9.640;2024-01-16T08:20:19;10.43;;;7.35;;
5819;SDS011;2936;47.348;9.640;2024-01-16T08:22:47;14.40;;;8.00;;
5819;SDS011;2936;47.348;9.640;2024-01-16T08:25:15;9.85;;;8.05;;
5819;SDS011;2936;47.348;9.640;2024-01-16T08:27:46;15.48;;;8.30;;
5819;SDS011;2936;47.348;9.640;2024-01-16T08:30:14;9.35;;;7.55;;
5819;SDS011;2936;47.348;9.640;2024-01-16T08:32:42;10.82;;;8.20;;
5819;SDS011;2936;47.348;9.640;2024-01-16T08:35:10;13.00;;;9.35;;
5819;SDS011;2936;47.348;9.640;2024-01-16T08:37:41;11.95;;;8.95;;
5819;SDS011;2936;47.348;9.640;2024-01-16T08:40:10;15.68;;;9.57;;
5819;SDS011;2936;47.348;9.640;2024-01-16T08:42:39;11.77;;;8.60;;
5819;SDS011;2936;47.348;9.640;2024-01-16T08:45:11;11.43;;;7.63;;
5819;SDS011;2936;47.348;9.640;2024-01-16T08:47:40;10.32;;;7.50;;
5819;SDS011;2936;47.348;9.640;2024-01-16T08:50:09;20.60;;;9.75;;
5819;SDS011;2936;47.348;9.640;2024-01-16T08:52:38;18.13;;;8.75;;
5819;SDS011;2936;47.348;9.640;2024-01-16T08:55:06;10.90;;;8.27;;
5819;SDS011;2936;47.348;9.640;2024-01-16T08:57:36;12.88;;;8.57;;
5819;SDS011;2936;47.348;9.640;2024-01-16T09:00:07;14.35;;;9.38;;
5819;SDS011;2936;47.348;9.640;2024-01-16T09:02:37;12.68;;;8.90;;
5819;SDS011;2936;47.348;9.640;2024-01-16T09:05:07;19.15;;;9.55;;
5819;SDS011;2936;47.348;9.640;2024-01-16T09:07:35;27.02;;;11.63;;
5819;SDS011;2936;47.348;9.640;2024-01-16T09:10:05;19.27;;;10.55;;
5819;SDS011;2936;47.348;9.640;2024-01-16T09:12:33;16.35;;;11.07;;
5819;SDS011;2936;47.348;9.640;2024-01-16T09:15:03;29.67;;;11.45;;
5819;SDS011;2936;47.348;9.640;2024-01-16T09:17:34;23.67;;;11.35;;
5819;SDS011;2936;47.348;9.640;2024-01-16T09:20:05;18.45;;;10.05;;
5819;SDS011;2936;47.348;9.640;2024-01-16T09:22:33;11.77;;;8.95;;
5819;SDS011;2936;47.348;9.640;2024-01-16T09:25:01;16.88;;;10.20;;
5819;SDS011;2936;47.348;9.640;2024-01-16T09:27:28;20.17;;;10.65;;
5819;SDS011;2936;47.348;9.640;2024-01-16T09:29:56;16.73;;;11.05;;
5819;SDS011;2936;47.348;9.640;2024-01-16T09:32:25;16.58;;;10.63;;
5819;SDS011;2936;47.348;9.640;2024-01-16T09:34:53;21.85;;;11.85;;
5819;SDS011;2936;47.348;9.640;2024-01-16T09:37:22;22.15;;;11.07;;
5819;SDS011;2936;47.348;9.640;2024-01-16T09:39:51;15.90;;;10.77;;
5819;SDS011;2936;47.348;9.640;2024-01-16T09:42:19;21.52;;;11.77;;
5819;SDS011;2936;47.348;9.640;2024-01-16T09:44:48;33.45;;;11.98;;
5819;SDS011;2936;47.348;9.640;2024-01-16T09:47:16;23.65;;;12.30;;
5819;SDS011;2936;47.348;9.640;2024-01-16T09:49:45;24.40;;;13.45;;
5819;SDS011;2936;47.348;9.640;2024-01-16T09:52:13;33.90;;;14.88;;
5819;SDS011;2936;47.348;9.640;2024-01-16T09:54:43;52.08;;;14.68;;
5819;SDS011;2936;47.348;9.640;2024-01-16T09:57:10;20.85;;;12.20;;
5819;SDS011;2936;47.348;9.640;2024-01-16T09:59:40;22.48;;;13.18;;
5819;SDS011;2936;47.348;9.640;2024-01-16T10:02:09;16.02;;;12.23;;
5819;SDS011;2936;47.348;9.640;2024-01-16T10:04:37;27.17;;;12.55;;
5819;SDS011;2936;47.348;9.640;2024-01-16T10:07:05;26.88;;;12.20;;
5819;SDS011;2936;47.348;9.640;2024-01-16T10:09:34;16.30;;;9.75;;
5819;SDS011;2936;47.348;9.640;2024-01-16T10:12:07;19.85;;;10.45;;
5819;SDS011;2936;47.348;9.640;2024-01-16T10:14:36;13.60;;;9.48;;
5819;SDS011;2936;47.348;9.640;2024-01-16T10:17:05;12.38;;;8.57;;
5819;SDS011;2936;47.348;9.640;2024-01-16T10:19:46;17.40;;;10.32;;
5819;SDS011;2936;47.348;9.640;2024-01-16T10:22:19;21.83;;;9.68;;
5819;SDS011;2936;47.348;9.640;2024-01-16T10:24:48;16.42;;;9.90;;
5819;SDS011;2936;47.348;9.640;2024-01-16T10:27:17;13.80;;;9.60;;
5819;SDS011;2936;47.348;9.640;2024-01-16T10:29:54;20.98;;;10.25;;
5819;SDS011;2936;47.348;9.640;2024-01-16T10:32:26;11.63;;;7.45;;
5819;SDS011;2936;47.348;9.640;2024-01-16T10:35:05;14.05;;;8.10;;
5819;SDS011;2936;47.348;9.640;2024-01-16T10:37:43;20.50;;;7.15;;
5819;SDS011;2936;47.348;9.640;2024-01-16T10:40:16;7.05;;;6.35;;
5819;SDS011;2936;47.348;9.640;2024-01-16T10:42:56;9.25;;;5.50;;
5819;SDS011;2936;47.348;9.640;2024-01-16T10:45:25;9.82;;;5.53;;
5819;SDS011;2936;47.348;9.640;2024-01-16T10:48:00;8.57;;;5.10;;
5819;SDS011;2936;47.348;9.640;2024-01-16T10:50:28;6.93;;;5.20;;
5819;SDS011;2936;47.348;9.640;2024-01-16T10:53:03;12.38;;;6.45;;
5819;SDS011;2936;47.348;9.640;2024-01-16T10:55:38;6.05;;;5.45;;
5819;SDS011;2936;47.348;9.640;2024-01-16T10:58:08;9.00;;;6.15;;
5819;SDS011;2936;47.348;9.640;2024-01-16T11:00:37;4.82;;;4.53;;
5819;SDS011;2936;47.348;9.640;2024-01-16T11:03:17;8.98;;;6.05;;
5819;SDS011;2936;47.348;9.640;2024-01-16T11:05:48;5.47;;;4.95;;
5819;SDS011;2936;47.348;9.640;2024-01-16T11:08:16;20.67;;;4.93;;
5819;SDS011;2936;47.348;9.640;2024-01-16T11:10:45;11.65;;;5.90;;
5819;SDS011;2936;47.348;9.640;2024-01-16T11:13:16;8.77;;;5.38;;
5819;SDS011;2936;47.348;9.640;2024-01-16T11:15:44;5.00;;;4.60;;
5819;SDS011;2936;47.348;9.640;2024-01-16T11:18:14;5.75;;;4.35;;
5819;SDS011;2936;47.348;9.640;2024-01-16T11:20:43;5.47;;;5.00;;
5819;SDS011;2936;47.348;9.640;2024-01-16T11:23:12;6.50;;;5.20;;
5819;SDS011;2936;47.348;9.640;2024-01-16T11:25:40;8.90;;;4.90;;
5819;SDS011;2936;47.348;9.640;2024-01-16T11:28:10;4.32;;;3.88;;
5819;SDS011;2936;47.348;9.640;2024-01-16T11:30:40;6.07;;;5.45;;
5819;SDS011;2936;47.348;9.640;2024-01-16T11:33:12;8.82;;;4.45;;
5819;SDS011;2936;47.348;9.640;2024-01-16T11:36:01;6.53;;;4.43;;
5819;SDS011;2936;47.348;9.640;2024-01-16T11:38:29;5.75;;;4.03;;
5819;SDS011;2936;47.348;9.640;2024-01-16T11:41:01;5.07;;;4.68;;
5819;SDS011;2936;47.348;9.640;2024-01-16T11:43:36;13.07;;;5.07;;
5819;SDS011;2936;47.348;9.640;2024-01-16T11:46:06;5.85;;;5.10;;
5819;SDS011;2936;47.348;9.640;2024-01-16T11:48:35;4.35;;;3.97;;
5819;SDS011;2936;47.348;9.640;2024-01-16T11:51:22;4.60;;;4.30;;
5819;SDS011;2936;47.348;9.640;2024-01-16T11:53:49;22.02;;;4.43;;
5819;SDS011;2936;47.348;9.640;2024-01-16T11:56:24;6.40;;;4.50;;
5819;SDS011;2936;47.348;9.640;2024-01-16T11:59:06;37.78;;;6.97;;
5819;SDS011;2936;47.348;9.640;2024-01-16T12:01:37;4.35;;;4.05;;
5819;SDS011;2936;47.348;9.640;2024-01-16T12:04:05;6.18;;;4.60;;
5819;SDS011;2936;47.348;9.640;2024-01-16T12:06:34;12.77;;;4.40;;
5819;SDS011;2936;47.348;9.640;2024-01-16T12:09:11;6.05;;;4.43;;
5819;SDS011;2936;47.348;9.640;2024-01-16T12:11:39;4.40;;;4.20;;
5819;SDS011;2936;47.348;9.640;2024-01-16T12:14:10;8.00;;;4.32;;
5819;SDS011;2936;47.348;9.640;2024-01-16T12:16:40;4.57;;;4.15;;
5819;SDS011;2936;47.348;9.640;2024-01-16T12:19:08;4.32;;;4.00;;
5819;SDS011;2936;47.348;9.640;2024-01-16T12:21:38;5.60;;;4.80;;
5819;SDS011;2936;47.348;9.640;2024-01-16T12:24:06;5.18;;;4.72;;
5819;SDS011;2936;47.348;9.640;2024-01-16T12:26:34;4.88;;;4.47;;
5819;SDS011;2936;47.348;9.640;2024-01-16T12:29:04;7.65;;;5.00;;
5819;SDS011;2936;47.348;9.640;2024-01-16T12:31:32;4.85;;;4.35;;
5819;SDS011;2936;47.348;9.640;2024-01-16T12:34:07;5.32;;;4.85;;
5819;SDS011;2936;47.348;9.640;2024-01-16T12:36:35;8.05;;;4.80;;
5819;SDS011;2936;47.348;9.640;2024-01-16T12:39:06;4.80;;;4.18;;
5819;SDS011;2936;47.348;9.640;2024-01-16T12:41:38;4.75;;;4.05;;
5819;SDS011;2936;47.348;9.640;2024-01-16T12:44:08;5.78;;;5.18;;
5819;SDS011;2936;47.348;9.640;2024-01-16T12:46:35;5.32;;;4.88;;
5819;SDS011;2936;47.348;9.640;2024-01-16T12:49:02;24.30;;;5.10;;
5819;SDS011;2936;47.348;9.640;2024-01-16T12:51:33;4.97;;;4.43;;
5819;SDS011;2936;47.348;9.640;2024-01-16T12:54:11;4.50;;;4.30;;
5819;SDS011;2936;47.348;9.640;2024-01-16T12:56:38;7.75;;;4.55;;
5819;SDS011;2936;47.348;9.640;2024-01-16T12:59:10;6.68;;;5.05;;
5819;SDS011;2936;47.348;9.640;2024-01-16T13:01:39;5.65;;;5.00;;
5819;SDS011;2936;47.348;9.640;2024-01-16T13:04:10;6.57;;;4.38;;
5819;SDS011;2936;47.348;9.640;2024-01-16T13:06:41;5.80;;;5.20;;
5819;SDS011;2936;47.348;9.640;2024-01-16T13:09:09;6.43;;;4.20;;
5819;SDS011;2936;47.348;9.640;2024-01-16T13:11:45;4.80;;;4.45;;
5819;SDS011;2936;47.348;9.640;2024-01-16T13:14:13;6.25;;;5.60;;
5819;SDS011;2936;47.348;9.640;2024-01-16T13:16:42;5.25;;;4.75;;
5819;SDS011;2936;47.348;9.640;2024-01-16T13:19:09;7.80;;;4.30;;
5819;SDS011;2936;47.348;9.640;2024-01-16T13:21:37;9.50;;;5.80;;
5819;SDS011;2936;47.348;9.640;2024-01-16T13:24:07;25.30;;;5.45;;
5819;SDS011;2936;47.348;9.640;2024-01-16T13:26:35;11.23;;;5.15;;
5819;SDS011;2936;47.348;9.640;2024-01-16T13:29:06;7.70;;;5.00;;
5819;SDS011;2936;47.348;9.640;2024-01-16T13:31:34;10.10;;;3.90;;
5819;SDS011;2936;47.348;9.640;2024-01-16T13:34:02;5.47;;;4.45;;
5819;SDS011;2936;47.348;9.640;2024-01-16T13:36:29;4.57;;;4.35;;
5819;SDS011;2936;47.348;9.640;2024-01-16T13:38:57;6.03;;;3.95;;
5819;SDS011;2936;47.348;9.640;2024-01-16T13:41:26;5.75;;;4.97;;
5819;SDS011;2936;47.348;9.640;2024-01-16T13:43:56;12.73;;;4.30;;
5819;SDS011;2936;47.348;9.640;2024-01-16T13:46:23;6.25;;;3.95;;
5819;SDS011;2936;47.348;9.640;2024-01-16T13:48:54;4.45;;;4.05;;
5819;SDS011;2936;47.348;9.640;2024-01-16T13:51:23;5.38;;;4.13;;
5819;SDS011;2936;47.348;9.640;2024-01-16T13:53:51;4.80;;;4.35;;
5819;SDS011;2936;47.348;9.640;2024-01-16T13:56:18;6.78;;;4.32;;
5819;SDS011;2936;47.348;9.640;2024-01-16T13:58:48;5.28;;;4.82;;
5819;SDS011;2936;47.348;9.640;2024-01-16T14:01:18;5.50;;;4.40;;
5819;SDS011;2936;47.348;9.640;2024-01-16T14:03:47;6.25;;;5.35;;
5819;SDS011;2936;47.348;9.640;2024-01-16T14:06:15;4.35;;;3.90;;
5819;SDS011;2936;47.348;9.640;2024-01-16T14:08:43;6.10;;;4.72;;
5819;SDS011;2936;47.348;9.640;2024-01-16T14:11:11;4.85;;;4.20;;
5819;SDS011;2936;47.348;9.640;2024-01-16T14:13:38;3.67;;;3.47;;
5819;SDS011;2936;47.348;9.640;2024-01-16T14:16:07;3.63;;;3.42;;
5819;SDS011;2936;47.348;9.640;2024-01-16T14:18:35;11.27;;;5.00;;
5819;SDS011;2936;47.348;9.640;2024-01-16T14:21:03;10.80;;;4.45;;
5819;SDS011;2936;47.348;9.640;2024-01-16T14:23:32;4.47;;;4.22;;
5819;SDS011;2936;47.348;9.640;2024-01-16T14:25:59;23.27;;;4.22;;
5819;SDS011;2936;47.348;9.640;2024-01-16T14:28:30;4.43;;;4.00;;
5819;SDS011;2936;47.348;9.640;2024-01-16T14:30:59;4.60;;;4.03;;
5819;SDS011;2936;47.348;9.640;2024-01-16T14:33:28;4.57;;;3.80;;
5819;SDS011;2936;47.348;9.640;2024-01-16T14:35:56;4.43;;;4.07;;
5819;SDS011;2936;47.348;9.640;2024-01-16T14:38:24;10.25;;;4.50;;
5819;SDS011;2936;47.348;9.640;2024-01-16T14:40:51;4.50;;;4.22;;
5819;SDS011;2936;47.348;9.640;2024-01-16T14:43:21;9.88;;;4.15;;
5819;SDS011;2936;47.348;9.640;2024-01-16T14:45:49;5.28;;;4.88;;
5819;SDS011;2936;47.348;9.640;2024-01-16T14:48:17;5.22;;;4.45;;
5819;SDS011;2936;47.348;9.640;2024-01-16T14:50:47;4.80;;;4.40;;
5819;SDS011;2936;47.348;9.640;2024-01-16T14:53:17;4.72;;;4.43;;
5819;SDS011;2936;47.348;9.640;2024-01-16T14:55:44;8.75;;;4.07;;
5819;SDS011;2936;47.348;9.640;2024-01-16T14:58:12;7.00;;;5.13;;
5819;SDS011;2936;47.348;9.640;2024-01-16T15:00:39;4.00;;;3.80;;
5819;SDS011;2936;47.348;9.640;2024-01-16T15:03:08;5.70;;;5.20;;
5819;SDS011;2936;47.348;9.640;2024-01-16T15:05:35;9.18;;;5.03;;
5819;SDS011;2936;47.348;9.640;2024-01-16T15:08:05;5.07;;;4.22;;
5819;SDS011;2936;47.348;9.640;2024-01-16T15:10:32;4.93;;;4.43;;
5819;SDS011;2936;47.348;9.640;2024-01-16T15:13:01;21.65;;;5.70;;
5819;SDS011;2936;47.348;9.640;2024-01-16T15:15:29;10.65;;;5.20;;
5819;SDS011;2936;47.348;9.640;2024-01-16T15:17:59;23.48;;;5.53;;